createdAt,value
2023-05-22T00:01:44.432Z,17.15
2023-05-22T00:04:14.037Z,17.14
2023-05-22T00:06:43.910Z,17.11
2023-05-22T00:09:10.592Z,17.08
2023-05-22T00:11:37.231Z,17.06
2023-05-22T00:14:03.898Z,17.04
2023-05-22T00:16:30.724Z,16.97
2023-05-22T00:18:57.709Z,16.91
2023-05-22T00:21:24.957Z,16.84
2023-05-22T00:23:51.571Z,16.73
2023-05-22T00:26:18.184Z,16.71
2023-05-22T00:28:44.846Z,16.63
2023-05-22T00:31:11.640Z,16.53
2023-05-22T00:33:38.357Z,16.45
2023-05-22T00:36:05.525Z,16.29
2023-05-22T00:38:37.602Z,16.21
2023-05-22T00:41:06.059Z,16.15
2023-05-22T00:43:33.893Z,16.13
2023-05-22T00:46:00.840Z,16.11
2023-05-22T00:48:27.640Z,16.02
2023-05-22T00:50:55.446Z,15.87
2023-05-22T00:53:24.292Z,15.79
2023-05-22T00:55:51.830Z,15.70
2023-05-22T00:58:19.266Z,15.65
2023-05-22T01:00:46.944Z,15.60
2023-05-22T01:03:14.851Z,15.47
2023-05-22T01:05:42.214Z,15.42
2023-05-22T01:08:09.360Z,15.43
2023-05-22T01:10:39.466Z,15.42
2023-05-22T01:13:51.171Z,15.40
2023-05-22T01:16:29.865Z,15.42
2023-05-22T01:19:23.424Z,15.38
2023-05-22T01:22:08.321Z,15.38
2023-05-22T01:25:00.687Z,15.40
2023-05-22T01:27:48.842Z,15.43
2023-05-22T01:30:34.060Z,15.43
2023-05-22T01:33:03.786Z,15.47
2023-05-22T01:35:32.658Z,15.49
2023-05-22T01:38:00.734Z,15.52
2023-05-22T01:40:28.453Z,15.54
2023-05-22T01:42:55.542Z,15.55
2023-05-22T01:45:22.288Z,15.56
2023-05-22T01:47:49.147Z,15.57
2023-05-22T01:50:16.210Z,15.54
2023-05-22T01:53:13.774Z,15.52
2023-05-22T01:55:46.235Z,15.51
2023-05-22T01:58:17.655Z,15.39
2023-05-22T02:00:46.336Z,15.35
2023-05-22T02:03:19.384Z,15.30
2023-05-22T02:05:49.483Z,15.25
2023-05-22T02:08:17.020Z,15.21
2023-05-22T02:10:45.879Z,15.12
2023-05-22T02:13:13.040Z,15.07
2023-05-22T02:15:40.101Z,15.07
2023-05-22T02:18:15.340Z,15.03
2023-05-22T02:20:42.305Z,15.02
2023-05-22T02:23:09.327Z,14.99
2023-05-22T02:25:36.151Z,14.94
2023-05-22T02:28:02.873Z,14.95
2023-05-22T02:30:29.564Z,14.96
2023-05-22T02:32:58.369Z,14.95
2023-05-22T02:35:25.006Z,14.94
2023-05-22T02:37:51.776Z,14.95
2023-05-22T02:40:18.401Z,15.00
2023-05-22T02:42:45.025Z,14.98
2023-05-22T02:45:11.754Z,15.01
2023-05-22T02:47:38.440Z,14.99
2023-05-22T02:50:05.573Z,14.97
2023-05-22T02:52:32.147Z,14.96
2023-05-22T02:54:58.852Z,14.92
2023-05-22T02:57:25.467Z,14.80
2023-05-22T02:59:52.662Z,14.82
2023-05-22T03:02:19.892Z,14.76
2023-05-22T03:04:46.691Z,14.75
2023-05-22T03:07:13.365Z,14.75
2023-05-22T03:09:40.000Z,14.77
2023-05-22T03:12:09.361Z,14.77
2023-05-22T03:14:36.662Z,14.79
2023-05-22T03:17:03.779Z,14.79
2023-05-22T03:19:30.548Z,14.81
2023-05-22T03:21:57.596Z,14.81
2023-05-22T03:24:24.198Z,14.81
2023-05-22T03:26:50.991Z,14.80
2023-05-22T03:29:17.788Z,14.80
2023-05-22T03:31:44.517Z,14.82
2023-05-22T03:34:11.252Z,14.85
2023-05-22T03:36:37.933Z,14.85
2023-05-22T03:39:04.949Z,14.83
2023-05-22T03:41:31.556Z,14.84
2023-05-22T03:43:58.457Z,14.88
2023-05-22T03:46:25.302Z,14.94
2023-05-22T03:48:52.070Z,14.96
2023-05-22T03:51:20.262Z,15.00
2023-05-22T03:53:47.261Z,15.05
2023-05-22T03:56:13.883Z,15.09
2023-05-22T03:58:40.946Z,15.11
2023-05-22T04:01:09.906Z,15.19
2023-05-22T04:03:37.651Z,15.24
2023-05-22T04:06:05.698Z,15.31
2023-05-22T04:08:32.475Z,15.37
2023-05-22T04:10:59.164Z,15.45
2023-05-22T04:13:27.435Z,15.53
2023-05-22T04:15:54.185Z,15.63
2023-05-22T04:18:20.899Z,15.70
2023-05-22T04:20:47.523Z,15.80
2023-05-22T04:23:14.171Z,15.89
2023-05-22T04:25:40.839Z,15.99
2023-05-22T04:28:09.307Z,16.06
2023-05-22T04:30:40.434Z,16.15
2023-05-22T04:33:08.489Z,16.21
2023-05-22T04:35:35.472Z,16.29
2023-05-22T04:38:02.260Z,16.36
2023-05-22T04:40:30.359Z,16.42
2023-05-22T04:42:59.929Z,16.47
2023-05-22T04:45:28.934Z,16.52
2023-05-22T04:47:56.544Z,16.58
2023-05-22T04:50:24.038Z,16.63
2023-05-22T04:52:50.979Z,16.72
2023-05-22T04:55:19.176Z,16.76
2023-05-22T04:57:46.090Z,16.85
2023-05-22T05:00:14.500Z,16.92
2023-05-22T05:02:41.398Z,17.02
2023-05-22T05:05:08.536Z,17.07
2023-05-22T05:07:39.364Z,17.13
2023-05-22T05:10:07.444Z,17.21
2023-05-22T05:12:34.422Z,17.27
2023-05-22T05:15:01.547Z,17.34
2023-05-22T05:17:28.785Z,17.39
2023-05-22T05:19:55.552Z,17.42
2023-05-22T05:22:22.216Z,17.50
2023-05-22T05:24:48.915Z,17.56
2023-05-22T05:27:16.050Z,17.63
2023-05-22T05:29:42.683Z,17.63
2023-05-22T05:32:11.572Z,17.69
2023-05-22T05:34:38.496Z,17.72
2023-05-22T05:37:05.841Z,17.77
2023-05-22T05:39:32.476Z,17.80
2023-05-22T05:42:00.230Z,17.84
2023-05-22T05:44:27.091Z,17.88
2023-05-22T05:46:53.875Z,17.92
2023-05-22T05:49:20.513Z,17.96
2023-05-22T05:51:47.144Z,18.05
2023-05-22T05:54:13.785Z,18.13
2023-05-22T05:56:40.748Z,18.18
2023-05-22T05:59:08.054Z,18.24
2023-05-22T06:01:35.384Z,18.34
2023-05-22T06:04:03.538Z,18.43
2023-05-22T06:06:35.749Z,18.50
2023-05-22T06:09:05.440Z,18.55
2023-05-22T06:11:33.231Z,18.67
2023-05-22T06:14:01.377Z,18.72
2023-05-22T06:16:28.371Z,18.71
2023-05-22T06:18:57.160Z,18.73
2023-05-22T06:21:24.544Z,18.78
2023-05-22T06:23:51.701Z,18.81
2023-05-22T06:26:18.842Z,18.82
2023-05-22T06:28:48.200Z,18.87
2023-05-22T06:31:14.813Z,18.90
2023-05-22T06:33:43.401Z,18.96
2023-05-22T06:36:11.543Z,19.04
2023-05-22T06:38:39.189Z,19.16
2023-05-22T06:41:06.522Z,19.29
2023-05-22T06:43:33.297Z,19.32
2023-05-22T06:46:00.202Z,19.41
2023-05-22T06:48:26.850Z,19.52
2023-05-22T06:50:53.495Z,19.62
2023-05-22T06:53:20.353Z,19.71
2023-05-22T06:55:47.042Z,19.84
2023-05-22T06:58:13.803Z,19.98
2023-05-22T07:00:40.604Z,20.08
2023-05-22T07:03:07.632Z,20.14
2023-05-22T07:05:34.329Z,20.19
2023-05-22T07:08:01.638Z,20.25
2023-05-22T07:10:28.543Z,20.29
2023-05-22T07:12:55.279Z,20.35
2023-05-22T07:15:22.077Z,20.38
2023-05-22T07:17:49.724Z,20.42
2023-05-22T07:20:17.800Z,20.49
2023-05-22T07:22:44.484Z,20.64
2023-05-22T07:25:11.295Z,20.82
2023-05-22T07:27:38.003Z,20.91
2023-05-22T07:30:05.221Z,20.96
2023-05-22T07:32:31.847Z,20.93
2023-05-22T07:34:58.436Z,20.99
2023-05-22T07:37:25.052Z,21.00
2023-05-22T07:39:51.669Z,21.12
2023-05-22T07:42:18.374Z,21.27
2023-05-22T07:44:45.023Z,21.35
2023-05-22T07:47:11.678Z,21.39
2023-05-22T07:49:38.277Z,21.44
2023-05-22T07:52:05.199Z,21.40
2023-05-22T07:54:31.823Z,21.44
2023-05-22T07:56:58.455Z,21.44
2023-05-22T07:59:25.597Z,21.43
2023-05-22T08:01:52.357Z,21.39
2023-05-22T08:04:19.240Z,21.40
2023-05-22T08:06:46.392Z,21.49
2023-05-22T08:09:13.472Z,21.53
2023-05-22T08:11:42.269Z,21.51
2023-05-22T08:14:09.100Z,21.50
2023-05-22T08:16:35.842Z,21.54
2023-05-22T08:19:03.266Z,21.65
2023-05-22T08:21:30.033Z,21.74
2023-05-22T08:23:56.634Z,21.90
2023-05-22T08:26:23.271Z,22.09
2023-05-22T08:28:50.019Z,22.20
2023-05-22T08:31:16.676Z,22.35
2023-05-22T08:33:43.338Z,22.49
2023-05-22T08:36:10.021Z,22.60
2023-05-22T08:38:37.152Z,22.82
2023-05-22T08:41:06.092Z,22.97
2023-05-22T08:43:32.684Z,23.04
2023-05-22T08:46:09.395Z,23.09
2023-05-22T08:48:37.286Z,23.16
2023-05-22T08:51:05.996Z,23.20
2023-05-22T08:53:37.146Z,23.20
2023-05-22T08:56:06.739Z,23.19
2023-05-22T08:58:38.253Z,23.16
2023-05-22T09:01:07.690Z,23.19
2023-05-22T09:03:36.019Z,23.33
2023-05-22T09:06:03.323Z,23.39
2023-05-22T09:08:30.113Z,23.54
2023-05-22T09:10:56.760Z,23.63
2023-05-22T09:13:28.602Z,23.80
2023-05-22T09:16:00.712Z,23.88
2023-05-22T09:18:29.128Z,23.94
2023-05-22T09:20:58.045Z,23.92
2023-05-22T09:23:28.282Z,24.00
2023-05-22T09:26:00.265Z,24.15
2023-05-22T09:28:27.789Z,24.26
2023-05-22T09:30:55.598Z,24.32
2023-05-22T09:33:23.447Z,24.58
2023-05-22T09:35:54.190Z,24.83
2023-05-22T09:38:28.675Z,25.25
2023-05-22T09:40:56.428Z,25.49
2023-05-22T09:43:25.403Z,25.47
2023-05-22T09:46:02.064Z,25.17
2023-05-22T09:48:29.043Z,24.98
2023-05-22T09:50:59.777Z,25.13
2023-05-22T09:53:29.835Z,24.90
2023-05-22T09:55:58.195Z,24.88
2023-05-22T09:58:27.294Z,24.92
2023-05-22T10:00:56.370Z,25.07
2023-05-22T10:03:24.597Z,25.06
2023-05-22T10:05:54.421Z,25.13
2023-05-22T10:08:28.233Z,25.22
2023-05-22T10:10:55.392Z,25.15
2023-05-22T10:13:22.281Z,25.09
2023-05-22T10:15:49.937Z,24.96
2023-05-22T10:18:17.531Z,24.63
2023-05-22T10:20:46.891Z,24.61
2023-05-22T10:23:16.573Z,24.71
2023-05-22T10:25:44.719Z,24.94
2023-05-22T10:28:14.297Z,24.95
2023-05-22T10:30:41.233Z,25.16
2023-05-22T10:33:36.658Z,25.58
2023-05-22T10:36:23.126Z,25.99
2023-05-22T10:39:01.564Z,26.10
2023-05-22T10:41:28.543Z,26.27
2023-05-22T10:43:57.415Z,26.16
2023-05-22T10:46:24.481Z,26.37
2023-05-22T10:48:54.264Z,26.49
2023-05-22T10:51:24.757Z,26.64
2023-05-22T10:53:55.599Z,26.82
2023-05-22T10:56:25.146Z,26.75
2023-05-22T10:58:57.740Z,26.70
2023-05-22T11:01:27.427Z,26.77
2023-05-22T11:03:55.258Z,26.72
2023-05-22T11:06:37.059Z,26.68
2023-05-22T11:09:31.082Z,26.80
2023-05-22T11:12:17.802Z,26.95
2023-05-22T11:14:55.661Z,26.85
2023-05-22T11:17:29.396Z,26.91
2023-05-22T11:19:59.842Z,26.98
2023-05-22T11:22:34.322Z,27.14
2023-05-22T11:25:05.147Z,27.36
2023-05-22T11:27:31.997Z,27.54
2023-05-22T11:30:01.363Z,27.68
2023-05-22T11:32:28.364Z,27.81
2023-05-22T11:34:57.147Z,27.91
2023-05-22T11:37:24.111Z,27.70
2023-05-22T11:40:04.753Z,27.39
2023-05-22T11:42:31.537Z,27.53
2023-05-22T11:44:58.369Z,27.48
2023-05-22T11:47:26.867Z,27.58
2023-05-22T11:49:54.189Z,27.66
2023-05-22T11:52:21.106Z,27.70
2023-05-22T11:54:48.407Z,27.89
2023-05-22T11:57:15.504Z,28.00
2023-05-22T11:59:48.781Z,27.90
2023-05-22T12:02:19.126Z,28.05
2023-05-22T12:04:46.393Z,28.26
2023-05-22T12:07:13.569Z,28.05
2023-05-22T12:09:40.882Z,28.11
2023-05-22T12:12:11.622Z,28.09
2023-05-22T12:14:38.609Z,28.12
2023-05-22T12:17:06.429Z,28.01
2023-05-22T12:19:33.291Z,28.17
2023-05-22T12:21:59.873Z,28.12
2023-05-22T12:24:26.573Z,28.18
2023-05-22T12:26:53.933Z,28.27
2023-05-22T12:29:23.786Z,28.41
2023-05-22T12:31:51.276Z,28.49
2023-05-22T12:34:21.227Z,28.50
2023-05-22T12:36:48.079Z,28.65
2023-05-22T12:39:18.679Z,28.62
2023-05-22T12:41:45.950Z,28.74
2023-05-22T12:44:14.973Z,28.70
2023-05-22T12:46:41.967Z,28.79
2023-05-22T12:49:09.089Z,28.84
2023-05-22T12:51:35.766Z,28.99
2023-05-22T12:54:03.660Z,29.21
2023-05-22T12:56:31.448Z,29.37
2023-05-22T12:58:58.725Z,29.51
2023-05-22T13:01:26.305Z,29.78
2023-05-22T13:03:53.073Z,29.68
2023-05-22T13:06:20.621Z,29.93
2023-05-22T13:08:47.324Z,29.91
2023-05-22T13:11:14.042Z,30.09
2023-05-22T13:13:40.733Z,30.21
2023-05-22T13:16:07.428Z,30.32
2023-05-22T13:18:34.226Z,30.32
2023-05-22T13:21:00.918Z,30.55
2023-05-22T13:23:27.502Z,30.76
2023-05-22T13:25:54.169Z,30.89
2023-05-22T13:28:21.079Z,31.03
2023-05-22T13:30:47.639Z,31.13
2023-05-22T13:33:14.314Z,31.19
2023-05-22T13:35:41.172Z,31.31
2023-05-22T13:38:07.946Z,30.95
2023-05-22T13:40:34.584Z,30.69
2023-05-22T13:43:01.236Z,30.59
2023-05-22T13:45:27.921Z,30.45
2023-05-22T13:47:54.596Z,30.57
2023-05-22T13:50:21.240Z,30.92
2023-05-22T13:52:47.926Z,31.06
2023-05-22T13:55:14.585Z,30.49
2023-05-22T13:57:41.343Z,30.44
2023-05-22T14:00:09.439Z,30.53
2023-05-22T14:02:36.117Z,30.50
2023-05-22T14:05:03.074Z,30.37
2023-05-22T14:07:29.653Z,30.25
2023-05-22T14:09:57.144Z,30.11
2023-05-22T14:12:25.179Z,30.09
2023-05-22T14:14:51.794Z,29.79
2023-05-22T14:17:18.389Z,29.88
2023-05-22T14:19:45.084Z,30.13
2023-05-22T14:22:11.803Z,30.25
2023-05-22T14:24:38.425Z,30.36
2023-05-22T14:27:05.354Z,30.71
2023-05-22T14:29:31.955Z,31.05
2023-05-22T14:32:04.309Z,31.34
2023-05-22T14:34:31.555Z,30.97
2023-05-22T14:36:58.563Z,30.97
2023-05-22T14:39:25.833Z,31.26
2023-05-22T14:41:55.548Z,31.31
2023-05-22T14:44:24.936Z,31.19
2023-05-22T14:46:53.541Z,31.04
2023-05-22T14:49:20.417Z,32.13
2023-05-22T14:51:48.361Z,31.55
2023-05-22T14:54:19.185Z,31.52
2023-05-22T14:56:46.362Z,30.99
2023-05-22T14:59:14.357Z,30.76
2023-05-22T15:01:41.503Z,31.55
2023-05-22T15:04:08.882Z,32.53
2023-05-22T15:06:36.227Z,33.13
2023-05-22T15:09:03.806Z,31.75
2023-05-22T15:11:30.427Z,30.87
2023-05-22T15:13:57.121Z,30.09
2023-05-22T15:16:25.703Z,29.90
2023-05-22T15:18:52.540Z,29.76
2023-05-22T15:21:19.551Z,29.74
2023-05-22T15:23:46.349Z,29.23
2023-05-22T15:26:12.932Z,28.71
2023-05-22T15:28:39.581Z,28.31
2023-05-22T15:31:06.527Z,28.04
2023-05-22T15:33:34.381Z,27.89
2023-05-22T15:36:01.046Z,27.62
2023-05-22T15:38:28.370Z,27.43
2023-05-22T15:40:55.049Z,27.41
2023-05-22T15:43:21.967Z,27.40
2023-05-22T15:45:49.484Z,27.35
2023-05-22T15:48:16.874Z,27.38
2023-05-22T15:50:43.970Z,27.24
2023-05-22T15:53:10.699Z,27.23
2023-05-22T15:55:37.591Z,27.10
2023-05-22T15:58:06.575Z,27.00
2023-05-22T16:00:38.680Z,26.85
2023-05-22T16:03:08.898Z,26.85
2023-05-22T16:05:40.400Z,26.88
2023-05-22T16:08:10.475Z,26.86
2023-05-22T16:10:37.376Z,26.84
2023-05-22T16:13:07.888Z,26.57
2023-05-22T16:15:34.598Z,26.46
2023-05-22T16:18:01.357Z,26.44
2023-05-22T16:20:28.075Z,26.53
2023-05-22T16:22:54.735Z,26.41
2023-05-22T16:25:21.570Z,26.34
2023-05-22T16:27:48.228Z,26.21
2023-05-22T16:30:17.092Z,26.19
2023-05-22T16:32:48.055Z,26.29
2023-05-22T16:35:15.452Z,26.85
2023-05-22T16:37:42.173Z,27.23
2023-05-22T16:40:11.890Z,27.13
2023-05-22T16:42:38.544Z,26.87
2023-05-22T16:45:06.587Z,26.70
2023-05-22T16:47:33.282Z,26.57
2023-05-22T16:50:00.167Z,26.78
2023-05-22T16:52:26.912Z,27.08
2023-05-22T16:54:54.094Z,27.26
2023-05-22T16:57:21.358Z,27.24
2023-05-22T16:59:48.156Z,26.81
2023-05-22T17:02:15.008Z,26.53
2023-05-22T17:04:41.641Z,26.35
2023-05-22T17:07:08.232Z,26.12
2023-05-22T17:09:34.912Z,26.17
2023-05-22T17:12:01.525Z,26.22
2023-05-22T17:14:28.134Z,26.27
2023-05-22T17:16:55.804Z,26.16
2023-05-22T17:19:22.989Z,25.89
2023-05-22T17:21:49.769Z,25.80
2023-05-22T17:24:16.466Z,25.76
2023-05-22T17:26:44.507Z,25.73
2023-05-22T17:29:11.158Z,25.47
2023-05-22T17:31:39.501Z,25.16
2023-05-22T17:34:06.524Z,24.86
2023-05-22T17:36:33.387Z,24.61
2023-05-22T17:39:00.114Z,24.44
2023-05-22T17:41:26.749Z,24.33
2023-05-22T17:43:55.907Z,24.21
2023-05-22T17:46:22.951Z,24.05
2023-05-22T17:48:49.657Z,23.95
2023-05-22T17:51:16.339Z,23.82
2023-05-22T17:53:43.106Z,23.78
2023-05-22T17:56:09.842Z,23.78
2023-05-22T17:58:36.482Z,23.79
2023-05-22T18:01:03.259Z,23.56
2023-05-22T18:03:30.832Z,23.50
2023-05-22T18:05:57.756Z,23.40
2023-05-22T18:08:24.480Z,23.38
2023-05-22T18:10:51.385Z,23.39
2023-05-22T18:13:19.523Z,23.31
2023-05-22T18:15:46.206Z,23.24
2023-05-22T18:18:13.182Z,23.18
2023-05-22T18:20:40.282Z,23.09
2023-05-22T18:23:07.180Z,22.97
2023-05-22T18:25:33.819Z,22.84
2023-05-22T18:28:00.586Z,22.63
2023-05-22T18:30:27.208Z,22.56
2023-05-22T18:32:53.906Z,22.48
2023-05-22T18:35:20.696Z,22.30
2023-05-22T18:37:47.313Z,22.20
2023-05-22T18:40:13.960Z,21.95
2023-05-22T18:42:40.718Z,21.81
2023-05-22T18:45:08.055Z,21.75
2023-05-22T18:47:34.865Z,21.70
2023-05-22T18:50:01.568Z,21.57
2023-05-22T18:52:28.211Z,21.42
2023-05-22T18:54:54.907Z,21.33
2023-05-22T18:57:21.701Z,21.28
2023-05-22T18:59:48.382Z,21.16
2023-05-22T19:02:16.881Z,21.10
2023-05-22T19:04:43.817Z,21.05
2023-05-22T19:07:10.649Z,21.03
2023-05-22T19:09:37.646Z,20.91
2023-05-22T19:12:04.919Z,20.76
2023-05-22T19:14:31.799Z,20.66
2023-05-22T19:17:00.295Z,20.43
2023-05-22T19:19:27.583Z,20.30
2023-05-22T19:21:54.382Z,20.24
2023-05-22T19:24:21.159Z,20.15
2023-05-22T19:26:47.859Z,20.03
2023-05-22T19:29:15.778Z,19.86
2023-05-22T19:31:42.648Z,19.76
2023-05-22T19:34:09.311Z,19.65
2023-05-22T19:36:36.282Z,19.53
2023-05-22T19:39:04.015Z,19.40
2023-05-22T19:41:30.617Z,19.23
2023-05-22T19:43:57.472Z,19.24
2023-05-22T19:46:24.432Z,19.19
2023-05-22T19:48:51.064Z,19.08
2023-05-22T19:51:17.715Z,19.06
2023-05-22T19:53:44.496Z,18.85
2023-05-22T19:56:11.502Z,18.66
2023-05-22T19:58:38.154Z,18.63
2023-05-22T20:01:04.821Z,18.58
2023-05-22T20:03:31.616Z,18.42
2023-05-22T20:05:58.325Z,18.40
2023-05-22T20:08:25.567Z,18.32
2023-05-22T20:10:52.588Z,18.08
2023-05-22T20:13:19.176Z,18.10
2023-05-22T20:15:47.837Z,18.05
2023-05-22T20:18:14.626Z,18.10
2023-05-22T20:20:41.463Z,18.11
2023-05-22T20:23:08.190Z,18.11
2023-05-22T20:25:35.032Z,18.03
2023-05-22T20:28:03.810Z,17.75
2023-05-22T20:30:31.102Z,17.64
2023-05-22T20:32:57.836Z,17.48
2023-05-22T20:35:26.387Z,17.43
2023-05-22T20:37:53.432Z,17.43
2023-05-22T20:40:20.366Z,17.50
2023-05-22T20:42:47.515Z,17.51
2023-05-22T20:45:15.988Z,17.50
2023-05-22T20:47:43.153Z,17.49
2023-05-22T20:50:10.198Z,17.39
2023-05-22T20:52:39.888Z,17.28
2023-05-22T20:55:06.947Z,17.14
2023-05-22T20:57:34.349Z,17.15
2023-05-22T21:00:01.530Z,17.21
2023-05-22T21:02:28.254Z,17.18
2023-05-22T21:04:54.994Z,17.10
2023-05-22T21:07:21.686Z,16.97
2023-05-22T21:09:48.268Z,16.95
2023-05-22T21:12:14.900Z,16.92
2023-05-22T21:14:43.466Z,16.89
2023-05-22T21:17:10.473Z,16.86
2023-05-22T21:19:37.172Z,16.88
2023-05-22T21:22:04.034Z,16.94
2023-05-22T21:24:32.530Z,16.97
2023-05-22T21:26:59.686Z,16.99
2023-05-22T21:29:26.555Z,16.94
2023-05-22T21:31:53.295Z,16.92
2023-05-22T21:34:19.997Z,16.87
2023-05-22T21:36:46.719Z,16.81
2023-05-22T21:39:13.363Z,16.75
2023-05-22T21:41:40.025Z,16.74
2023-05-22T21:44:07.910Z,16.70
2023-05-22T21:46:34.765Z,16.63
2023-05-22T21:49:03.314Z,16.59
2023-05-22T21:51:29.975Z,16.46
2023-05-22T21:53:56.595Z,16.41
2023-05-22T21:56:23.278Z,16.37
2023-05-22T21:58:49.918Z,16.31
2023-05-22T22:01:16.615Z,16.29
2023-05-22T22:03:43.368Z,16.21
2023-05-22T22:06:10.303Z,16.14
2023-05-22T22:08:38.240Z,16.19
2023-05-22T22:11:04.913Z,16.23
2023-05-22T22:13:31.649Z,16.18
2023-05-22T22:15:59.374Z,16.07
2023-05-22T22:18:26.104Z,16.03
2023-05-22T22:20:54.150Z,16.02
2023-05-22T22:23:21.947Z,15.98
2023-05-22T22:25:48.996Z,15.97
2023-05-22T22:28:15.919Z,15.96
2023-05-22T22:30:42.649Z,15.96
2023-05-22T22:33:09.448Z,15.88
2023-05-22T22:35:36.298Z,15.84
2023-05-22T22:38:03.231Z,15.87
2023-05-22T22:40:29.839Z,15.78
2023-05-22T22:42:56.436Z,15.76
2023-05-22T22:45:23.036Z,15.70
2023-05-22T22:47:49.673Z,15.70
2023-05-22T22:50:16.807Z,15.70
2023-05-22T22:52:46.275Z,15.55
2023-05-22T22:55:13.535Z,15.43
2023-05-22T22:57:43.355Z,15.34
2023-05-22T23:00:13.206Z,15.36
2023-05-22T23:02:40.341Z,15.29
2023-05-22T23:05:07.772Z,15.23
2023-05-22T23:07:34.673Z,15.19
2023-05-22T23:10:01.240Z,15.09
2023-05-22T23:12:27.899Z,15.08
2023-05-22T23:14:55.473Z,15.12
2023-05-22T23:17:22.062Z,15.13
2023-05-22T23:19:48.617Z,15.12
2023-05-22T23:22:15.246Z,15.09
2023-05-22T23:24:41.824Z,15.01
2023-05-22T23:27:08.396Z,15.00
2023-05-22T23:29:34.988Z,15.04
2023-05-22T23:32:01.650Z,15.06
2023-05-22T23:34:28.255Z,15.00
2023-05-22T23:36:54.912Z,14.96
2023-05-22T23:39:21.539Z,14.86
2023-05-22T23:41:48.187Z,14.76
2023-05-22T23:44:14.855Z,14.71
2023-05-22T23:46:42.532Z,14.66
2023-05-22T23:49:09.231Z,14.66
2023-05-22T23:51:36.657Z,14.72
2023-05-22T23:54:03.546Z,14.72
2023-05-22T23:56:30.156Z,14.70
2023-05-22T23:58:56.799Z,14.69
